createdAt,value
2019-05-22T00:02:36.056Z,78.40
2019-05-22T00:05:14.455Z,78.20
2019-05-22T00:07:48.902Z,77.80
2019-05-22T00:10:22.083Z,77.80
2019-05-22T00:12:52.842Z,77.40
2019-05-22T00:15:23.318Z,77.90
2019-05-22T00:17:54.240Z,78.20
2019-05-22T00:20:25.831Z,78.30
2019-05-22T00:22:55.010Z,78.40
2019-05-22T00:25:28.768Z,79.60
2019-05-22T00:27:59.716Z,80.10
2019-05-22T00:30:31.051Z,80.40
2019-05-22T00:33:00.565Z,81.10
2019-05-22T00:35:31.465Z,81.20
2019-05-22T00:38:01.452Z,80.70
2019-05-22T00:40:32.050Z,81.00
2019-05-22T00:43:06.741Z,81.30
2019-05-22T00:45:31.323Z,81.10
2019-05-22T00:48:00.466Z,81.00
2019-05-22T00:50:33.214Z,79.40
2019-05-22T00:53:07.992Z,78.60
2019-05-22T00:55:48.417Z,77.40
2019-05-22T00:58:19.695Z,76.90
2019-05-22T01:00:50.238Z,76.40
2019-05-22T01:03:22.460Z,75.90
2019-05-22T01:05:51.394Z,75.90
2019-05-22T01:08:21.516Z,78.00
2019-05-22T01:10:54.705Z,79.80
2019-05-22T01:13:25.419Z,81.30
2019-05-22T01:15:55.270Z,81.10
2019-05-22T01:18:25.543Z,82.30
2019-05-22T01:20:57.766Z,83.00
2019-05-22T01:23:29.323Z,84.40
2019-05-22T01:26:00.036Z,85.50
2019-05-22T01:28:30.339Z,85.10
2019-05-22T01:31:06.883Z,85.70
2019-05-22T01:33:40.728Z,86.20
2019-05-22T01:36:11.194Z,86.50
2019-05-22T01:38:40.427Z,87.10
2019-05-22T01:41:18.841Z,87.50
2019-05-22T01:43:50.280Z,87.20
2019-05-22T01:46:21.141Z,88.10
2019-05-22T01:48:53.821Z,88.80
2019-05-22T01:51:22.645Z,89.70
2019-05-22T01:53:51.957Z,90.10
2019-05-22T01:56:21.148Z,90.70
2019-05-22T01:58:50.702Z,90.60
2019-05-22T02:01:21.474Z,90.50
2019-05-22T02:03:51.793Z,90.80
2019-05-22T02:06:23.258Z,90.90
2019-05-22T02:08:56.621Z,91.00
2019-05-22T02:11:27.375Z,90.80
2019-05-22T02:14:12.453Z,90.80
2019-05-22T02:16:55.942Z,90.70
2019-05-22T02:19:16.526Z,90.30
2019-05-22T02:21:45.871Z,90.20
2019-05-22T02:24:16.139Z,90.20
2019-05-22T02:26:46.031Z,90.40
2019-05-22T02:29:16.814Z,90.50
2019-05-22T02:31:47.098Z,89.70
2019-05-22T02:34:16.896Z,90.10
2019-05-22T02:36:46.299Z,90.20
2019-05-22T02:39:18.213Z,90.60
2019-05-22T02:41:53.032Z,90.80
2019-05-22T02:44:23.075Z,90.70
2019-05-22T02:46:53.232Z,90.60
2019-05-22T02:49:23.976Z,90.50
2019-05-22T02:51:54.029Z,90.60
2019-05-22T02:54:22.796Z,90.60
2019-05-22T02:56:51.429Z,90.60
2019-05-22T02:59:21.009Z,90.20
2019-05-22T03:01:49.758Z,90.20
2019-05-22T03:04:20.167Z,90.30
2019-05-22T03:06:51.133Z,90.40
2019-05-22T03:09:22.205Z,90.50
2019-05-22T03:11:57.676Z,90.80
2019-05-22T03:14:28.568Z,90.60
2019-05-22T03:17:00.595Z,90.80
2019-05-22T03:19:36.612Z,90.70
2019-05-22T03:22:21.355Z,91.00
2019-05-22T03:24:51.924Z,91.00
2019-05-22T03:27:24.126Z,91.10
2019-05-22T03:29:53.855Z,91.40
2019-05-22T03:32:23.572Z,91.40
2019-05-22T03:34:53.255Z,91.40
2019-05-22T03:37:23.706Z,91.40
2019-05-22T03:39:52.473Z,91.10
2019-05-22T03:42:22.840Z,91.00
2019-05-22T03:44:53.674Z,90.60
2019-05-22T03:47:25.440Z,90.60
2019-05-22T03:49:55.196Z,90.50
2019-05-22T03:52:25.417Z,90.40
2019-05-22T03:54:55.885Z,90.50
2019-05-22T03:57:24.579Z,90.70
2019-05-22T03:59:54.691Z,90.70
2019-05-22T04:02:23.864Z,90.70
2019-05-22T04:04:54.800Z,90.70
2019-05-22T04:07:24.103Z,90.70
2019-05-22T04:09:53.326Z,90.70
2019-05-22T04:12:22.500Z,90.50
2019-05-22T04:14:51.515Z,90.40
2019-05-22T04:17:21.265Z,90.60
2019-05-22T04:19:51.868Z,90.70
2019-05-22T04:22:21.608Z,90.30
2019-05-22T04:24:51.374Z,90.40
2019-05-22T04:27:20.370Z,90.30
2019-05-22T04:29:49.936Z,90.00
2019-05-22T04:32:21.683Z,89.60
2019-05-22T04:34:51.775Z,88.90
2019-05-22T04:37:21.746Z,89.00
2019-05-22T04:39:53.981Z,89.10
2019-05-22T04:42:23.619Z,89.30
2019-05-22T04:45:10.965Z,89.00
2019-05-22T04:47:40.341Z,89.20
2019-05-22T04:50:10.549Z,89.20
2019-05-22T04:52:39.308Z,89.50
2019-05-22T04:55:11.405Z,89.10
2019-05-22T04:57:41.076Z,89.20
2019-05-22T05:00:11.533Z,88.80
2019-05-22T05:02:41.150Z,87.50
2019-05-22T05:05:11.126Z,87.70
2019-05-22T05:07:41.649Z,86.40
2019-05-22T05:10:11.088Z,86.90
2019-05-22T05:12:41.403Z,87.00
2019-05-22T05:15:10.194Z,84.90
2019-05-22T05:17:39.065Z,84.60
2019-05-22T05:20:21.588Z,83.00
2019-05-22T05:22:44.476Z,83.30
2019-05-22T05:25:14.968Z,83.80
2019-05-22T05:27:45.445Z,82.40
2019-05-22T05:30:15.536Z,82.50
2019-05-22T05:32:46.455Z,82.20
2019-05-22T05:35:17.199Z,81.60
2019-05-22T05:37:46.594Z,81.50
2019-05-22T05:40:36.385Z,81.90
2019-05-22T05:43:06.815Z,81.10
2019-05-22T05:45:36.961Z,80.60
2019-05-22T05:48:08.531Z,81.00
2019-05-22T05:50:40.430Z,81.20
2019-05-22T05:53:14.687Z,80.70
2019-05-22T05:56:06.062Z,80.30
2019-05-22T05:58:37.492Z,80.40
2019-05-22T06:01:19.504Z,80.60
2019-05-22T06:03:48.634Z,79.30
2019-05-22T06:06:27.308Z,80.00
2019-05-22T06:09:00.073Z,80.80
2019-05-22T06:11:35.725Z,80.00
2019-05-22T06:14:06.426Z,79.80
2019-05-22T06:16:50.980Z,79.90
2019-05-22T06:19:20.757Z,79.90
2019-05-22T06:21:51.007Z,79.70
2019-05-22T06:24:35.503Z,78.80
2019-05-22T06:27:11.428Z,79.60
2019-05-22T06:30:04.924Z,79.10
2019-05-22T06:32:57.511Z,79.40
2019-05-22T06:35:29.858Z,79.50
2019-05-22T06:38:21.620Z,80.00
2019-05-22T06:40:51.301Z,80.70
2019-05-22T06:43:24.731Z,81.50
2019-05-22T06:45:55.114Z,82.20
2019-05-22T06:48:23.950Z,82.10
2019-05-22T06:50:52.937Z,82.80
2019-05-22T06:53:21.610Z,84.30
2019-05-22T06:55:51.111Z,84.90
2019-05-22T06:58:20.681Z,85.90
2019-05-22T07:00:49.555Z,86.30
2019-05-22T07:03:18.846Z,86.70
2019-05-22T07:05:47.943Z,87.50
2019-05-22T07:08:17.147Z,88.20
2019-05-22T07:10:46.675Z,88.30
2019-05-22T07:13:16.919Z,88.30
2019-05-22T07:15:47.366Z,87.80
2019-05-22T07:18:17.955Z,88.00
2019-05-22T07:20:47.628Z,89.60
2019-05-22T07:23:20.410Z,89.70
2019-05-22T07:25:49.695Z,90.10
2019-05-22T07:28:19.485Z,89.90
2019-05-22T07:30:49.421Z,90.00
2019-05-22T07:33:18.774Z,89.80
2019-05-22T07:36:07.778Z,89.50
2019-05-22T07:38:19.577Z,90.20
2019-05-22T07:40:51.086Z,90.30
2019-05-22T07:43:21.714Z,90.40
2019-05-22T07:45:51.688Z,90.40
2019-05-22T07:48:21.967Z,90.00
2019-05-22T07:50:52.218Z,89.80
2019-05-22T07:53:22.692Z,89.80
2019-05-22T07:55:53.767Z,88.60
2019-05-22T07:58:24.142Z,88.10
2019-05-22T08:00:55.616Z,88.90
2019-05-22T08:03:25.173Z,89.20
2019-05-22T08:05:56.225Z,89.80
2019-05-22T08:08:27.700Z,89.40
2019-05-22T08:10:57.966Z,89.40
2019-05-22T08:13:27.101Z,89.30
2019-05-22T08:15:56.171Z,89.90
2019-05-22T08:18:27.069Z,89.70
2019-05-22T08:20:56.156Z,88.80
2019-05-22T08:23:26.659Z,89.60
2019-05-22T08:25:57.967Z,88.80
2019-05-22T08:28:28.207Z,88.70
2019-05-22T08:30:57.043Z,88.40
2019-05-22T08:33:26.062Z,88.10
2019-05-22T08:35:55.131Z,88.70
2019-05-22T08:38:29.632Z,89.60
2019-05-22T08:41:01.212Z,89.50
2019-05-22T08:43:31.175Z,88.90
2019-05-22T08:46:01.626Z,89.40
2019-05-22T08:48:31.510Z,89.90
2019-05-22T08:51:01.085Z,89.10
2019-05-22T08:53:44.402Z,89.10
2019-05-22T08:56:01.352Z,89.30
2019-05-22T08:58:30.154Z,89.60
2019-05-22T09:00:59.412Z,89.70
2019-05-22T09:03:28.738Z,89.80
2019-05-22T09:05:57.794Z,88.90
2019-05-22T09:08:26.578Z,88.90
2019-05-22T09:10:55.295Z,89.10
2019-05-22T09:13:23.993Z,89.60
2019-05-22T09:15:53.783Z,87.70
2019-05-22T09:18:22.707Z,86.70
2019-05-22T09:20:52.206Z,87.10
2019-05-22T09:23:21.972Z,87.10
2019-05-22T09:25:50.755Z,87.00
2019-05-22T09:28:19.507Z,86.70
2019-05-22T09:30:48.304Z,86.80
2019-05-22T09:33:18.589Z,87.00
2019-05-22T09:35:47.879Z,87.20
2019-05-22T09:38:16.963Z,86.80
2019-05-22T09:40:46.339Z,86.60
2019-05-22T09:43:15.312Z,86.50
2019-05-22T09:45:44.014Z,85.60
2019-05-22T09:48:12.692Z,86.10
2019-05-22T09:50:41.865Z,86.00
2019-05-22T09:53:10.595Z,85.60
2019-05-22T09:55:39.255Z,84.30
2019-05-22T09:58:08.473Z,84.50
2019-05-22T10:00:37.658Z,84.70
2019-05-22T10:03:07.108Z,85.10
2019-05-22T10:05:36.180Z,85.10
2019-05-22T10:08:05.664Z,84.80
2019-05-22T10:10:35.041Z,85.00
2019-05-22T10:13:04.097Z,85.30
2019-05-22T10:15:33.677Z,85.90
2019-05-22T10:18:03.414Z,86.90
2019-05-22T10:20:32.193Z,86.90
2019-05-22T10:23:14.880Z,87.50
2019-05-22T10:25:32.769Z,88.90
2019-05-22T10:28:01.463Z,88.70
2019-05-22T10:30:30.526Z,88.80
2019-05-22T10:32:59.259Z,89.60
2019-05-22T10:35:29.761Z,89.90
2019-05-22T10:37:58.394Z,89.50
2019-05-22T10:40:27.387Z,89.30
2019-05-22T10:42:56.814Z,89.00
2019-05-22T10:45:27.227Z,88.10
2019-05-22T10:47:55.996Z,88.80
2019-05-22T10:50:25.074Z,88.20
2019-05-22T10:52:55.105Z,87.60
2019-05-22T10:55:25.198Z,87.60
2019-05-22T10:57:54.204Z,87.50
2019-05-22T11:00:24.962Z,87.60
2019-05-22T11:02:53.922Z,88.10
2019-05-22T11:05:23.291Z,89.40
2019-05-22T11:07:52.307Z,89.90
2019-05-22T11:10:24.846Z,90.10
2019-05-22T11:12:54.439Z,90.70
2019-05-22T11:15:24.444Z,91.10
2019-05-22T11:17:54.375Z,91.00
2019-05-22T11:20:23.775Z,90.90
2019-05-22T11:22:53.161Z,90.90
2019-05-22T11:25:22.861Z,91.00
2019-05-22T11:27:53.683Z,91.30
2019-05-22T11:30:24.062Z,91.10
2019-05-22T11:32:53.837Z,91.30
2019-05-22T11:35:22.965Z,91.00
2019-05-22T11:37:51.761Z,90.80
2019-05-22T11:40:21.358Z,91.60
2019-05-22T11:42:51.949Z,91.10
2019-05-22T11:45:21.654Z,90.80
2019-05-22T11:47:51.147Z,91.30
2019-05-22T11:50:21.310Z,91.00
2019-05-22T11:52:50.187Z,91.20
2019-05-22T11:55:19.283Z,91.20
2019-05-22T11:57:49.129Z,91.30
2019-05-22T12:00:21.292Z,91.10
2019-05-22T12:02:51.630Z,91.00
2019-05-22T12:05:21.199Z,91.10
2019-05-22T12:07:50.225Z,90.80
2019-05-22T12:10:20.781Z,91.00
2019-05-22T12:12:51.614Z,91.30
2019-05-22T12:15:24.036Z,91.20
2019-05-22T12:17:53.468Z,91.20
2019-05-22T12:20:23.482Z,91.30
2019-05-22T12:22:52.573Z,91.80
2019-05-22T12:25:21.597Z,91.40
2019-05-22T12:27:50.432Z,91.60
2019-05-22T12:30:20.120Z,91.00
2019-05-22T12:32:49.450Z,91.40
2019-05-22T12:35:18.911Z,91.40
2019-05-22T12:37:47.944Z,91.70
2019-05-22T12:40:19.124Z,91.80
2019-05-22T12:42:49.205Z,91.70
2019-05-22T12:45:26.592Z,91.80
2019-05-22T12:47:55.883Z,91.80
2019-05-22T12:50:27.603Z,92.00
2019-05-22T12:52:56.292Z,91.80
2019-05-22T12:55:25.552Z,92.00
2019-05-22T12:57:54.298Z,92.10
2019-05-22T13:00:25.937Z,92.20
2019-05-22T13:02:57.016Z,92.40
2019-05-22T13:05:26.585Z,91.80
2019-05-22T13:07:57.058Z,91.70
2019-05-22T13:10:27.364Z,91.80
2019-05-22T13:12:56.974Z,92.10
2019-05-22T13:15:26.448Z,92.00
2019-05-22T13:17:55.665Z,91.90
2019-05-22T13:20:41.761Z,91.90
2019-05-22T13:22:58.108Z,91.80
2019-05-22T13:25:30.293Z,91.30
2019-05-22T13:28:00.668Z,90.90
2019-05-22T13:30:31.051Z,91.80
2019-05-22T13:33:00.371Z,91.60
2019-05-22T13:35:29.144Z,91.60
2019-05-22T13:37:59.015Z,91.60
2019-05-22T13:40:29.021Z,91.80
2019-05-22T13:42:59.323Z,91.80
2019-05-22T13:45:30.341Z,91.70
2019-05-22T13:47:59.254Z,91.40
2019-05-22T13:50:29.158Z,91.20
2019-05-22T13:53:00.610Z,91.60
2019-05-22T13:55:30.380Z,91.30
2019-05-22T13:58:03.362Z,91.20
2019-05-22T14:00:32.641Z,90.90
2019-05-22T14:03:01.557Z,91.00
2019-05-22T14:05:32.815Z,90.90
2019-05-22T14:08:01.425Z,91.50
2019-05-22T14:10:31.353Z,90.80
2019-05-22T14:13:01.765Z,90.90
2019-05-22T14:15:48.197Z,91.10
2019-05-22T14:18:01.895Z,90.70
2019-05-22T14:20:30.640Z,90.80
2019-05-22T14:22:59.449Z,91.00
2019-05-22T14:25:29.323Z,90.50
2019-05-22T14:27:58.169Z,90.60
2019-05-22T14:30:28.018Z,90.50
2019-05-22T14:33:03.887Z,90.70
2019-05-22T14:35:47.018Z,90.60
2019-05-22T14:38:01.825Z,90.30
2019-05-22T14:40:32.529Z,90.30
2019-05-22T14:43:01.357Z,90.10
2019-05-22T14:45:30.330Z,90.20
2019-05-22T14:47:59.324Z,90.20
2019-05-22T14:50:32.697Z,89.90
2019-05-22T14:53:00.321Z,89.50
2019-05-22T14:55:29.890Z,90.00
2019-05-22T14:57:58.841Z,90.10
2019-05-22T15:00:28.139Z,90.10
2019-05-22T15:02:59.072Z,90.10
2019-05-22T15:05:28.321Z,90.40
2019-05-22T15:07:56.939Z,90.00
2019-05-22T15:10:28.430Z,90.20
2019-05-22T15:12:57.540Z,90.20
2019-05-22T15:15:26.482Z,89.60
2019-05-22T15:17:55.391Z,89.70
2019-05-22T15:20:26.579Z,89.80
2019-05-22T15:22:56.377Z,89.80
2019-05-22T15:25:26.964Z,89.20
2019-05-22T15:27:55.829Z,89.60
2019-05-22T15:30:25.225Z,87.90
2019-05-22T15:32:53.896Z,88.40
2019-05-22T15:35:23.442Z,89.10
2019-05-22T15:37:54.479Z,88.90
2019-05-22T15:40:24.353Z,89.70
2019-05-22T15:42:54.503Z,90.00
2019-05-22T15:45:29.247Z,90.30
2019-05-22T15:48:02.380Z,90.40
2019-05-22T15:50:34.427Z,90.50
2019-05-22T15:53:08.803Z,90.60
2019-05-22T15:55:38.255Z,90.70
2019-05-22T15:58:08.264Z,90.50
2019-05-22T16:00:38.810Z,90.50
2019-05-22T16:03:16.896Z,90.20
2019-05-22T16:05:47.747Z,90.40
2019-05-22T16:08:17.303Z,90.10
2019-05-22T16:10:48.390Z,90.20
2019-05-22T16:13:21.148Z,90.50
2019-05-22T16:15:52.924Z,89.80
2019-05-22T16:18:25.478Z,90.10
2019-05-22T16:20:55.135Z,90.30
2019-05-22T16:23:24.761Z,89.50
2019-05-22T16:25:54.173Z,89.90
2019-05-22T16:28:23.709Z,90.00
2019-05-22T16:30:53.415Z,89.50
2019-05-22T16:33:23.769Z,88.60
2019-05-22T16:35:53.357Z,88.90
2019-05-22T16:38:24.004Z,89.00
2019-05-22T16:40:53.054Z,88.60
2019-05-22T16:43:22.199Z,88.60
2019-05-22T16:45:52.399Z,88.80
2019-05-22T16:48:29.104Z,88.60
2019-05-22T16:50:52.759Z,89.10
2019-05-22T16:53:23.365Z,89.20
2019-05-22T16:55:53.740Z,89.20
2019-05-22T16:58:22.750Z,88.50
2019-05-22T17:00:56.450Z,89.10
2019-05-22T17:03:25.054Z,90.00
2019-05-22T17:05:54.673Z,89.90
2019-05-22T17:08:23.867Z,89.90
2019-05-22T17:10:53.086Z,89.20
2019-05-22T17:13:22.555Z,90.00
2019-05-22T17:15:51.736Z,89.90
2019-05-22T17:18:21.407Z,88.90
2019-05-22T17:20:50.148Z,89.60
2019-05-22T17:23:18.943Z,89.30
2019-05-22T17:25:47.718Z,89.40
2019-05-22T17:28:17.899Z,89.70
2019-05-22T17:30:47.075Z,89.50
2019-05-22T17:33:15.867Z,89.80
2019-05-22T17:35:45.025Z,90.00
2019-05-22T17:38:14.946Z,89.60
2019-05-22T17:40:43.630Z,90.20
2019-05-22T17:43:13.436Z,89.90
2019-05-22T17:45:44.871Z,90.00
2019-05-22T17:48:16.229Z,89.80
2019-05-22T17:50:46.897Z,89.60
2019-05-22T17:53:16.288Z,89.20
2019-05-22T17:55:45.564Z,88.90
2019-05-22T17:58:14.778Z,89.20
2019-05-22T18:00:45.278Z,89.20
2019-05-22T18:03:14.564Z,88.90
2019-05-22T18:05:43.540Z,89.30
2019-05-22T18:08:12.787Z,89.50
2019-05-22T18:10:42.890Z,89.70
2019-05-22T18:13:12.890Z,89.90
2019-05-22T18:15:41.832Z,89.50
2019-05-22T18:18:11.285Z,89.60
2019-05-22T18:20:43.593Z,89.80
2019-05-22T18:23:11.208Z,89.50
2019-05-22T18:25:40.185Z,89.30
2019-05-22T18:28:10.681Z,90.10
2019-05-22T18:30:41.240Z,89.90
2019-05-22T18:33:10.319Z,89.80
2019-05-22T18:35:39.506Z,90.10
2019-05-22T18:38:08.373Z,90.00
2019-05-22T18:40:37.176Z,90.00
2019-05-22T18:43:06.083Z,90.00
2019-05-22T18:45:36.942Z,89.70
2019-05-22T18:48:06.480Z,89.60
2019-05-22T18:50:36.190Z,89.90
2019-05-22T18:53:05.441Z,90.20
2019-05-22T18:55:34.243Z,90.30
2019-05-22T18:58:02.927Z,90.10
2019-05-22T19:00:33.242Z,90.30
2019-05-22T19:03:01.962Z,90.50
2019-05-22T19:05:32.726Z,90.70
2019-05-22T19:08:01.700Z,91.00
2019-05-22T19:10:31.365Z,91.40
2019-05-22T19:13:00.375Z,91.50
2019-05-22T19:15:29.311Z,91.50
2019-05-22T19:17:58.696Z,91.70
2019-05-22T19:20:27.561Z,91.90
2019-05-22T19:23:00.987Z,92.00
2019-05-22T19:25:27.311Z,91.90
2019-05-22T19:27:55.956Z,91.80
2019-05-22T19:30:26.365Z,91.80
2019-05-22T19:32:55.327Z,91.70
2019-05-22T19:35:24.024Z,91.40
2019-05-22T19:37:53.686Z,91.20
2019-05-22T19:40:22.864Z,90.80
2019-05-22T19:42:51.754Z,90.80
2019-05-22T19:45:20.814Z,90.70
2019-05-22T19:47:52.006Z,90.10
2019-05-22T19:50:23.839Z,90.30
2019-05-22T19:52:55.087Z,90.00
2019-05-22T19:55:25.886Z,90.00
2019-05-22T19:57:55.135Z,89.90
2019-05-22T20:00:24.699Z,89.80
2019-05-22T20:02:54.514Z,89.20
2019-05-22T20:05:24.240Z,89.40
2019-05-22T20:07:53.328Z,88.60
2019-05-22T20:10:22.597Z,87.90
2019-05-22T20:12:51.677Z,87.40
2019-05-22T20:15:20.357Z,87.00
2019-05-22T20:17:49.139Z,86.80
2019-05-22T20:20:19.098Z,86.60
2019-05-22T20:22:48.024Z,86.70
2019-05-22T20:25:19.051Z,86.80
2019-05-22T20:27:47.912Z,86.60
2019-05-22T20:30:19.061Z,86.00
2019-05-22T20:32:48.981Z,86.30
2019-05-22T20:35:18.847Z,86.50
2019-05-22T20:37:47.856Z,86.50
2019-05-22T20:40:20.392Z,86.30
2019-05-22T20:42:50.499Z,86.70
2019-05-22T20:45:21.465Z,87.00
2019-05-22T20:47:54.707Z,86.80
2019-05-22T20:50:30.020Z,87.10
2019-05-22T20:52:59.117Z,87.20
2019-05-22T20:55:27.808Z,86.70
2019-05-22T20:57:57.768Z,86.80
2019-05-22T21:00:27.407Z,86.60
2019-05-22T21:03:02.504Z,87.00
2019-05-22T21:05:31.967Z,86.50
2019-05-22T21:08:07.146Z,85.90
2019-05-22T21:10:35.876Z,86.40
2019-05-22T21:13:05.752Z,86.80
2019-05-22T21:15:35.142Z,86.20
2019-05-22T21:18:04.617Z,86.00
2019-05-22T21:20:33.858Z,85.90
2019-05-22T21:23:03.783Z,85.70
2019-05-22T21:25:32.702Z,85.30
2019-05-22T21:28:01.406Z,85.10
2019-05-22T21:30:30.082Z,85.40
2019-05-22T21:32:59.166Z,85.80
2019-05-22T21:35:28.434Z,86.20
2019-05-22T21:37:58.551Z,85.80
2019-05-22T21:40:27.519Z,85.80
2019-05-22T21:42:56.263Z,85.80
2019-05-22T21:45:25.610Z,86.10
2019-05-22T21:47:54.913Z,86.20
2019-05-22T21:50:23.671Z,86.30
2019-05-22T21:52:54.512Z,86.20
2019-05-22T21:55:24.994Z,86.30
2019-05-22T21:57:54.621Z,86.40
2019-05-22T22:00:36.703Z,86.00
2019-05-22T22:03:05.994Z,86.20
2019-05-22T22:05:34.664Z,86.40
2019-05-22T22:08:03.829Z,86.60
2019-05-22T22:10:32.497Z,86.60
2019-05-22T22:13:01.591Z,86.40
2019-05-22T22:15:31.587Z,86.40
2019-05-22T22:18:00.477Z,86.60
2019-05-22T22:20:29.345Z,86.90
2019-05-22T22:22:58.241Z,87.10
2019-05-22T22:25:26.834Z,87.50
2019-05-22T22:27:55.927Z,87.10
2019-05-22T22:30:31.959Z,87.40
2019-05-22T22:33:04.933Z,87.40
2019-05-22T22:35:33.934Z,87.60
2019-05-22T22:38:03.357Z,87.60
2019-05-22T22:40:33.083Z,87.70
2019-05-22T22:43:03.327Z,87.80
2019-05-22T22:45:47.011Z,87.90
2019-05-22T22:48:18.161Z,87.80
2019-05-22T22:50:47.157Z,87.80
2019-05-22T22:53:17.000Z,87.70
2019-05-22T22:55:47.389Z,87.50
2019-05-22T22:58:17.948Z,87.40
2019-05-22T23:00:48.835Z,87.40
2019-05-22T23:03:27.358Z,87.20
2019-05-22T23:05:57.048Z,87.40
2019-05-22T23:08:34.793Z,87.50
2019-05-22T23:11:05.677Z,87.40
2019-05-22T23:13:35.638Z,87.30
2019-05-22T23:16:04.445Z,87.10
2019-05-22T23:18:43.507Z,87.50
2019-05-22T23:21:12.639Z,87.10
2019-05-22T23:23:41.346Z,87.20
2019-05-22T23:26:11.554Z,87.20
2019-05-22T23:28:41.889Z,87.00
2019-05-22T23:31:11.774Z,86.70
2019-05-22T23:33:41.018Z,86.70
2019-05-22T23:36:12.166Z,86.60
2019-05-22T23:38:41.426Z,86.70
2019-05-22T23:41:11.391Z,86.20
2019-05-22T23:43:40.527Z,86.10
2019-05-22T23:46:11.525Z,86.10
2019-05-22T23:48:41.206Z,86.30
2019-05-22T23:51:10.283Z,86.30
2019-05-22T23:53:40.460Z,86.50
2019-05-22T23:56:10.814Z,86.60
2019-05-22T23:58:52.356Z,86.70
